Ashland City, TN

1:16 PM CDT on October 02, 2014 (GMT -0500)
Camp Sycamore Hills | Change Station
CLOSE
Current Station
Personal Weather Station
Location: Ashland City, TN
Elevation: 436 ft
Nearby Weather Stations

Elev 436 ft 36.32 °N, 87.06 °W | Updated 26 seconds ago

Partly Cloudy
Partly Cloudy
88.5 °F
Feels Like 92 °F
N
1.7
Wind Variable Wind from North

Today
High -- | Low -- °F
--% Chance of Precip.
Yesterday
High -- | Low -- °F
Precip. -- in
6:44 AM 6:30 PM
First Quarter, 61% visible
Pressure 29.98 in
Visibility 10.0 miles
Clouds Few 4600 ft
Scattered Clouds 12000 ft
Scattered Clouds 20000 ft
Heat Index 92 °F
Dew Point 68 °F
Humidity 50%
Rainfall -999.00 in
Snow Depth Not available.
UV 6 out of 12
Pollen 5.40 out of 12
Ozone Good
PM2.5 Moderate
Flu Activity Not available.
METAR KBNA 021753Z 20012KT 10SM FEW046 SCT120 SCT200 30/16 A3000 RMK AO2 SLP151 T03000161 10306 20183 58017

More Conditions Fewer Conditions

Pressure 29.98 in
Visibility 10.0 miles
Clouds Few 4600 ft
Scattered Clouds 12000 ft
Scattered Clouds 20000 ft
Heat Index 92 °F
Dew Point 68 °F
Humidity 50%
Rainfall -999.00 in
Snow Depth Not available.
UV 6 out of 12
Pollen 5.40 out of 12
Ozone Good
PM2.5 Moderate
Flu Activity Not available.
METAR KBNA 021753Z 20012KT 10SM FEW046 SCT120 SCT200 30/16 A3000 RMK AO2 SLP151 T03000161 10306 20183 58017

More Conditions Fewer Conditions

10-Day Weather Forecast

Almanac

Astronomy

Oct. 02, 2014 Rise Set
Actual Time 6:44 AM CDT 6:30 PM CDT
Civil Twilight 6:18 AM CDT 6:55 PM CDT
Nautical Twilight 5:48 AM CDT 7:25 PM CDT
Astronomical Twilight 5:18 AM CDT 7:55 PM CDT
Moon 2:27 PM CDT 12:10 AM CDT
Length of Visible Light 12h 37m
Length of Day
11h 46m
Tomorrow will be 2m 17s shorter.
First Quarter, 61% of the Moon is Illuminated
Today
First Quarter
Oct 8
Full
Oct 15
Last Quarter
Oct 23
New
Oct 30
First Quarter

Today's Extremes

State Highs State Lows

Community

WunderPhotos

Upload Photos

1,758,316 photos uploaded!

WunderBlogs® & News

Nearby

Air Quality

  Air Quality AQ Index Pollutant
Yesterday Moderate
OZONE
Yesterday Moderate
PM2.5
Current Moderate
PM2.5
Current Good
OZONE
Thursday Moderate
PM2.5
Thursday Good
OZONE

Snow Depth

Station Depth Elevation
No new snow has been reported.

Earthquake Activity

City Distance Mag. Time & Date
No recent earthquake activity has been reported nearby.
Minimum magnitude displayed is 2.5.

Coastal Water Temperatures

Place Temperature
No Stations Reporting

Nearby Weather Stations